Time;durP1;ratioP1;P1;durP2;ratioP2;P2;SDS_P1;SDS_P2;PMS_P1;PMS_P2;Temp;Humidity;BMP_temperature;BMP_pressure;BME280_temperature;BME280_humidity;BME280_pressure;Samples;Min_cycle;Max_cycle;Signal;HPM_P1;HPM_P2
2022/06/12 00:01:08;;;;;;;5.55;2.58;;;20.90;82.20;;;;;;5033488;28;20053;-80
2022/06/12 00:03:34;;;;;;;5.72;2.20;;;20.90;82.10;;;;;;5034840;28;20459;-81
2022/06/12 00:06:03;;;;;;;9.27;2.47;;;20.90;82.40;;;;;;5034160;28;20029;-81
2022/06/12 00:08:32;;;;;;;8.43;2.10;;;20.90;82.30;;;;;;5034308;28;20026;-81
2022/06/12 00:11:01;;;;;;;4.75;2.08;;;20.80;82.60;;;;;;5034330;28;20095;-81
2022/06/12 00:13:31;;;;;;;6.95;2.17;;;20.90;82.60;;;;;;5034008;28;20030;-80
2022/06/12 00:15:57;;;;;;;8.13;2.33;;;20.90;82.70;;;;;;5033045;28;20835;-82
2022/06/12 00:18:24;;;;;;;9.95;3.38;;;20.90;83.20;;;;;;5034699;28;20352;-81
2022/06/12 00:21:10;;;;;;;7.78;2.20;;;20.80;83.30;;;;;;5033877;28;20084;-80
2022/06/12 00:23:40;;;;;;;4.60;2.08;;;20.70;83.60;;;;;;5033947;28;20141;-78
2022/06/12 00:26:06;;;;;;;11.27;2.50;;;20.70;83.70;;;;;;5032541;28;20068;-79
2022/06/12 00:28:32;;;;;;;8.85;2.40;;;20.70;83.80;;;;;;5033858;28;20049;-80
2022/06/12 00:30:57;;;;;;;7.43;1.90;;;20.60;83.60;;;;;;5033672;28;20077;-81
2022/06/12 00:33:23;;;;;;;11.88;2.92;;;20.70;83.80;;;;;;5034523;28;20092;-81
2022/06/12 00:35:49;;;;;;;8.63;2.78;;;20.70;84.10;;;;;;5032711;28;20029;-81
2022/06/12 00:38:15;;;;;;;6.95;2.20;;;20.70;84.30;;;;;;5033493;28;20067;-81
2022/06/12 00:40:41;;;;;;;7.20;2.20;;;20.60;84.00;;;;;;5033767;28;20033;-82
2022/06/12 00:43:06;;;;;;;6.55;2.42;;;20.60;84.50;;;;;;5033615;28;20057;-80
2022/06/12 00:45:42;;;;;;;5.85;2.22;;;20.60;84.50;;;;;;5034130;28;20021;-80
2022/06/12 00:48:18;;;;;;;7.85;2.13;;;20.50;84.70;;;;;;5033282;28;20037;-80
2022/06/12 00:50:58;;;;;;;7.22;1.90;;;20.50;85.00;;;;;;5033502;28;20030;-79
2022/06/12 00:53:31;;;;;;;6.10;2.33;;;20.50;84.80;;;;;;5033708;28;20116;-79
2022/06/12 00:56:05;;;;;;;6.55;2.15;;;20.50;85.30;;;;;;5033810;28;20266;-82
2022/06/12 00:58:39;;;;;;;10.63;2.33;;;20.40;85.40;;;;;;5033722;28;20355;-82
2022/06/12 01:01:10;;;;;;;9.52;2.40;;;20.40;85.50;;;;;;5033566;28;20013;-84
2022/06/12 01:06:33;;;;;;;7.85;2.55;;;20.30;85.70;;;;;;5034478;28;20017;-82
2022/06/12 01:06:34;;;;;;;10.00;3.17;;;20.30;86.00;;;;;;5033211;28;20406;-80
2022/06/12 01:09:16;;;;;;;12.43;2.80;;;20.10;86.40;;;;;;5033545;28;20491;-81
2022/06/12 01:11:46;;;;;;;10.82;3.25;;;20.20;86.30;;;;;;5032517;28;20117;-81
2022/06/12 01:14:17;;;;;;;11.43;2.90;;;20.10;86.20;;;;;;5032356;28;20064;-80
2022/06/12 01:16:48;;;;;;;16.15;3.25;;;20.00;86.70;;;;;;5032028;28;20053;-79
2022/06/12 01:19:37;;;;;;;10.15;2.55;;;19.90;86.60;;;;;;5032079;28;20040;-79
2022/06/12 01:22:32;;;;;;;9.93;2.78;;;19.90;87.10;;;;;;5031805;28;20029;-80
2022/06/12 01:25:32;;;;;;;15.05;3.05;;;19.70;87.40;;;;;;5032893;28;20455;-80
2022/06/12 01:28:35;;;;;;;14.55;3.30;;;19.70;87.70;;;;;;5032601;28;20029;-80
2022/06/12 01:31:13;;;;;;;13.90;3.30;;;19.60;87.80;;;;;;5031178;28;20045;-82
2022/06/12 01:34:00;;;;;;;13.45;3.30;;;19.50;88.00;;;;;;5031990;28;20355;-82
2022/06/12 01:37:07;;;;;;;16.08;3.38;;;19.40;88.10;;;;;;5019280;28;20034;-81
2022/06/12 01:39:50;;;;;;;10.73;2.90;;;19.40;88.40;;;;;;5012294;28;20037;-83
2022/06/12 01:42:18;;;;;;;14.05;3.13;;;19.40;88.40;;;;;;5012984;28;20033;-81
2022/06/12 01:45:11;;;;;;;14.35;3.20;;;19.30;88.70;;;;;;5012623;28;20088;-80
2022/06/12 01:48:18;;;;;;;11.35;3.05;;;19.20;89.10;;;;;;5012805;28;20030;-80
2022/06/12 01:51:13;;;;;;;14.48;2.75;;;19.20;88.50;;;;;;5013093;28;20040;-80
2022/06/12 01:53:50;;;;;;;13.85;3.10;;;19.10;89.00;;;;;;4990723;28;20435;-81
2022/06/12 01:56:29;;;;;;;9.75;2.90;;;19.10;88.90;;;;;;5003810;28;20125;-80
2022/06/12 01:59:06;;;;;;;13.10;3.00;;;19.00;89.30;;;;;;5012362;28;20124;-80
2022/06/12 02:02:00;;;;;;;15.77;2.90;;;18.80;89.50;;;;;;5011823;28;20371;-82
2022/06/12 02:04:53;;;;;;;9.45;2.92;;;18.90;89.40;;;;;;5011026;28;20380;-80
2022/06/12 02:07:30;;;;;;;21.17;3.20;;;18.90;89.70;;;;;;5012092;28;20066;-81
2022/06/12 02:10:12;;;;;;;13.52;2.80;;;18.80;90.00;;;;;;5012056;28;20034;-81
2022/06/12 02:15:33;;;;;;;15.77;2.80;;;18.70;89.90;;;;;;5012443;28;20491;-81
2022/06/12 02:18:10;;;;;;;14.43;2.60;;;18.70;90.00;;;;;;5011957;28;20141;-82
2022/06/12 02:20:40;;;;;;;11.23;2.85;;;18.60;90.10;;;;;;5015471;28;20425;-80
2022/06/12 02:23:14;;;;;;;8.80;2.72;;;18.60;90.10;;;;;;5012997;28;20046;-81
2022/06/12 02:25:42;;;;;;;13.75;3.28;;;18.50;90.20;;;;;;5012614;28;20033;-81
2022/06/12 02:28:15;;;;;;;15.07;3.05;;;18.60;90.10;;;;;;5013245;28;20384;-81
2022/06/12 02:30:48;;;;;;;12.70;3.20;;;18.60;90.10;;;;;;5012827;28;20120;-83
2022/06/12 02:33:39;;;;;;;15.57;3.50;;;18.60;90.10;;;;;;5012005;28;20481;-83
2022/06/12 02:36:23;;;;;;;12.00;3.38;;;18.50;90.00;;;;;;5011504;28;20060;-82
2022/06/12 02:39:10;;;;;;;11.02;2.80;;;18.50;90.00;;;;;;5010948;28;20034;-81
2022/06/12 02:41:46;;;;;;;12.77;3.42;;;18.50;90.00;;;;;;5011745;28;20099;-81
2022/06/12 02:44:23;;;;;;;15.13;3.05;;;18.40;90.00;;;;;;5014447;28;20057;-80
2022/06/12 02:47:05;;;;;;;12.98;2.90;;;18.40;90.00;;;;;;5014944;28;20040;-81
2022/06/12 02:49:34;;;;;;;18.45;4.07;;;18.40;90.10;;;;;;5015392;28;20125;-80
2022/06/12 02:52:06;;;;;;;15.02;2.92;;;18.30;90.00;;;;;;5015313;28;20109;-81
2022/06/12 02:54:50;;;;;;;12.63;3.30;;;18.20;90.10;;;;;;5012444;28;20084;-82
2022/06/12 02:57:22;;;;;;;15.10;3.50;;;18.30;90.30;;;;;;5011957;28;20038;-81
2022/06/12 03:00:20;;;;;;;12.75;3.08;;;18.20;90.30;;;;;;5011550;28;20038;-80
2022/06/12 03:02:46;;;;;;;13.02;3.50;;;18.30;90.30;;;;;;5011782;28;20040;-81
2022/06/12 03:05:33;;;;;;;14.48;2.33;;;18.30;90.40;;;;;;5011682;28;20033;-79
2022/06/12 03:08:02;;;;;;;15.67;3.20;;;18.20;90.50;;;;;;5010705;28;20045;-81
2022/06/12 03:10:38;;;;;;;12.65;3.03;;;18.20;90.60;;;;;;5011856;28;20041;-81
2022/06/12 03:13:08;;;;;;;13.18;3.25;;;18.10;90.60;;;;;;5011699;28;20173;-82
2022/06/12 03:15:39;;;;;;;14.50;2.67;;;18.20;90.70;;;;;;5011597;28;20018;-81
2022/06/12 03:18:10;;;;;;;9.57;3.03;;;18.10;90.70;;;;;;5010936;28;20037;-80
2022/06/12 03:20:54;;;;;;;9.90;2.30;;;18.10;90.80;;;;;;5011319;28;20030;-80
2022/06/12 03:23:36;;;;;;;15.63;2.63;;;18.10;90.70;;;;;;5011099;28;20029;-80
2022/06/12 03:26:09;;;;;;;13.35;3.08;;;18.10;90.80;;;;;;5010796;28;20087;-80
2022/06/12 03:28:47;;;;;;;12.25;2.80;;;18.10;90.90;;;;;;5011298;28;20141;-78
2022/06/12 03:31:38;;;;;;;11.10;2.90;;;18.10;91.00;;;;;;5010621;28;20162;-81
2022/06/12 03:34:25;;;;;;;11.35;2.78;;;17.90;91.10;;;;;;5011314;28;20029;-81
2022/06/12 03:37:18;;;;;;;18.75;3.05;;;17.90;91.40;;;;;;5011234;28;20086;-81
2022/06/12 03:40:07;;;;;;;11.63;2.63;;;17.90;91.40;;;;;;5011420;28;20038;-80
2022/06/12 03:42:41;;;;;;;12.43;3.17;;;17.80;91.70;;;;;;5009749;28;20041;-81
2022/06/12 03:45:13;;;;;;;17.63;3.35;;;17.70;91.80;;;;;;5010779;28;20495;-80
2022/06/12 03:47:52;;;;;;;13.90;2.90;;;17.70;91.80;;;;;;5011183;28;20042;-80
2022/06/12 03:50:29;;;;;;;14.80;3.03;;;17.60;92.10;;;;;;5009676;28;20030;-81
2022/06/12 03:52:58;;;;;;;13.25;3.22;;;17.60;92.10;;;;;;5010975;28;20037;-81
2022/06/12 03:58:39;;;;;;;11.50;2.60;;;17.50;92.30;;;;;;5003366;28;20124;-82
2022/06/12 04:01:06;;;;;;;11.80;2.60;;;17.50;92.50;;;;;;5020027;28;20086;-82
2022/06/12 04:03:40;;;;;;;14.27;2.80;;;17.50;92.60;;;;;;5011239;28;20018;-82
2022/06/12 04:06:15;;;;;;;11.05;2.65;;;17.40;93.10;;;;;;5010745;28;20057;-81
2022/06/12 04:08:51;;;;;;;15.75;3.17;;;17.30;93.10;;;;;;5010494;28;20105;-79
2022/06/12 04:11:20;;;;;;;13.82;3.63;;;17.30;93.10;;;;;;5010721;28;20034;-80
2022/06/12 04:13:48;;;;;;;12.00;3.22;;;17.30;93.30;;;;;;5009497;28;20164;-80
2022/06/12 04:16:32;;;;;;;11.65;3.35;;;17.30;93.60;;;;;;5010014;28;20112;-82
2022/06/12 04:18:58;;;;;;;16.88;3.53;;;17.30;93.60;;;;;;5010549;28;20460;-81
2022/06/12 04:21:41;;;;;;;12.95;4.13;;;17.30;93.60;;;;;;5010953;28;20037;-81
2022/06/12 04:24:25;;;;;;;11.23;3.88;;;17.40;93.60;;;;;;5010562;28;20036;-81
2022/06/12 04:27:05;;;;;;;12.80;3.42;;;17.40;93.60;;;;;;5010854;28;20113;-81
2022/06/12 04:29:37;;;;;;;12.90;3.20;;;17.40;93.20;;;;;;5010538;28;20129;-80
2022/06/12 04:32:06;;;;;;;17.42;4.00;;;17.40;93.50;;;;;;5009084;28;20038;-80
2022/06/12 04:34:33;;;;;;;14.07;3.30;;;17.50;93.80;;;;;;5009181;28;20372;-79
2022/06/12 04:37:24;;;;;;;14.18;3.20;;;17.40;93.90;;;;;;5009041;28;20034;-80
2022/06/12 04:39:51;;;;;;;14.15;3.78;;;17.50;94.00;;;;;;5012930;28;20041;-80
2022/06/12 04:42:19;;;;;;;12.77;2.33;;;17.60;94.30;;;;;;5010646;28;20030;-81
2022/06/12 04:44:45;;;;;;;16.17;3.67;;;17.60;93.70;;;;;;5009542;28;20038;-81
2022/06/12 04:47:14;;;;;;;14.73;2.95;;;17.60;93.40;;;;;;5012792;28;20349;-80
2022/06/12 04:49:40;;;;;;;11.55;3.28;;;17.70;93.80;;;;;;5014001;28;20041;-79
2022/06/12 04:52:09;;;;;;;10.30;2.70;;;17.80;93.60;;;;;;5014027;28;20105;-80
2022/06/12 04:54:36;;;;;;;15.50;3.97;;;17.90;93.10;;;;;;5014337;28;20025;-80
2022/06/12 04:57:02;;;;;;;11.02;2.80;;;17.90;93.40;;;;;;5013847;28;20494;-78
2022/06/12 04:59:29;;;;;;;12.43;3.28;;;17.90;93.50;;;;;;5012718;28;20129;-80
2022/06/12 05:01:55;;;;;;;11.93;3.22;;;18.00;93.50;;;;;;5013671;28;20065;-79
2022/06/12 05:04:22;;;;;;;15.38;2.95;;;18.00;93.40;;;;;;5013433;28;20113;-81
2022/06/12 05:06:51;;;;;;;13.97;2.50;;;18.10;92.70;;;;;;5013927;28;20029;-82
2022/06/12 05:09:19;;;;;;;15.77;3.25;;;18.10;92.10;;;;;;5013480;28;20256;-81
2022/06/12 05:11:45;;;;;;;7.72;2.25;;;18.10;91.90;;;;;;5012272;28;20069;-79
2022/06/12 05:14:12;;;;;;;16.75;3.00;;;18.20;92.10;;;;;;5013356;28;20048;-80
2022/06/12 05:16:59;;;;;;;15.75;3.85;;;18.30;92.00;;;;;;5013533;28;20113;-86
2022/06/12 05:19:34;;;;;;;13.32;3.33;;;18.40;91.90;;;;;;5014058;28;20050;-87
2022/06/12 05:22:01;;;;;;;19.73;3.70;;;18.50;92.10;;;;;;5014146;28;20021;-86
2022/06/12 05:24:28;;;;;;;10.35;3.42;;;18.50;92.10;;;;;;5013746;28;20053;-86
2022/06/12 05:26:54;;;;;;;19.25;3.15;;;18.60;92.00;;;;;;5014339;28;20030;-87
2022/06/12 05:29:24;;;;;;;14.63;3.30;;;18.70;92.10;;;;;;5013051;28;20030;-88
2022/06/12 05:31:50;;;;;;;13.05;3.05;;;18.70;92.30;;;;;;5014795;28;20069;-89
2022/06/12 05:34:16;;;;;;;15.07;3.03;;;18.80;92.30;;;;;;5014616;28;20065;-89
2022/06/12 05:36:43;;;;;;;17.58;5.82;;;18.80;92.20;;;;;;5014181;28;20041;-89
2022/06/12 05:39:09;;;;;;;16.20;4.45;;;18.90;92.00;;;;;;5014572;28;20026;-89
2022/06/12 05:41:36;;;;;;;12.88;2.78;;;19.00;92.10;;;;;;5014846;28;20026;-88
2022/06/12 05:44:02;;;;;;;15.80;3.45;;;19.00;92.00;;;;;;5014325;28;20129;-88
2022/06/12 05:46:27;;;;;;;12.73;3.83;;;19.10;91.70;;;;;;5014577;28;20168;-86
2022/06/12 05:48:53;;;;;;;15.40;3.78;;;19.20;91.60;;;;;;5014215;28;20480;-83
2022/06/12 05:51:19;;;;;;;11.70;3.45;;;19.40;91.60;;;;;;5014969;28;20376;-86
2022/06/12 05:53:45;;;;;;;15.95;3.50;;;19.50;91.60;;;;;;5014234;28;20539;-87
2022/06/12 05:56:16;;;;;;;13.35;3.40;;;19.70;91.30;;;;;;5013447;28;20121;-87
2022/06/12 05:58:42;;;;;;;13.15;3.20;;;20.00;91.10;;;;;;5013377;28;20091;-86
2022/06/12 06:01:12;;;;;;;23.77;4.03;;;20.10;90.80;;;;;;5013001;28;20367;-84
2022/06/12 06:03:38;;;;;;;15.95;4.43;;;20.10;90.60;;;;;;5014003;28;20014;-85
2022/06/12 06:06:13;;;;;;;17.63;3.20;;;20.20;90.50;;;;;;5013117;28;20053;-88
2022/06/12 06:08:39;;;;;;;18.20;3.70;;;20.20;90.20;;;;;;5013440;28;20026;-85
2022/06/12 06:11:06;;;;;;;19.73;4.68;;;20.10;90.00;;;;;;5012830;28;20030;-82
2022/06/12 06:13:32;;;;;;;15.13;3.40;;;20.10;90.00;;;;;;5012605;28;20120;-81
2022/06/12 06:15:58;;;;;;;15.85;3.30;;;20.10;89.70;;;;;;5012704;28;20109;-85
2022/06/12 06:18:25;;;;;;;9.15;2.85;;;20.00;89.50;;;;;;5012823;28;20036;-83
2022/06/12 06:20:51;;;;;;;11.93;3.20;;;20.10;89.60;;;;;;5012725;28;20096;-83
2022/06/12 06:23:17;;;;;;;21.92;3.85;;;20.30;90.00;;;;;;5012509;28;20419;-83
2022/06/12 06:25:43;;;;;;;13.55;3.08;;;20.20;89.70;;;;;;5012593;28;20113;-85
2022/06/12 06:28:10;;;;;;;9.25;2.75;;;20.30;89.30;;;;;;5012872;28;20037;-86
2022/06/12 06:30:37;;;;;;;13.07;2.88;;;20.50;88.70;;;;;;5011979;28;20034;-86
2022/06/12 06:33:03;;;;;;;11.75;2.95;;;20.70;88.40;;;;;;5013316;28;20041;-86
2022/06/12 06:35:29;;;;;;;13.43;3.33;;;20.70;87.30;;;;;;5012915;28;20368;-85
2022/06/12 06:37:55;;;;;;;17.10;3.42;;;20.70;87.20;;;;;;5011245;28;20042;-86
2022/06/12 06:40:24;;;;;;;17.23;3.10;;;20.60;86.60;;;;;;5011284;28;20030;-86
2022/06/12 06:42:49;;;;;;;12.40;3.25;;;20.80;86.70;;;;;;5011863;28;20025;-82
2022/06/12 06:48:01;;;;;;;11.30;2.85;;;20.50;85.90;;;;;;5012684;28;20052;-80
2022/06/12 06:50:32;;;;;;;12.25;2.67;;;20.60;86.00;;;;;;5011716;28;20026;-79
2022/06/12 06:52:59;;;;;;;18.50;2.63;;;20.60;86.00;;;;;;5011658;28;20030;-78
2022/06/12 06:55:25;;;;;;;15.27;3.03;;;20.40;85.50;;;;;;5012032;28;20368;-78
2022/06/12 06:57:51;;;;;;;16.35;2.88;;;20.30;84.80;;;;;;5012099;28;20034;-76
2022/06/12 07:00:21;;;;;;;11.60;2.17;;;20.40;85.30;;;;;;5011969;28;20033;-76
2022/06/12 07:02:47;;;;;;;12.43;2.75;;;20.60;86.10;;;;;;5010350;28;20030;-83
2022/06/12 07:05:13;;;;;;;11.05;2.85;;;20.80;87.10;;;;;;5010028;28;20364;-79
2022/06/12 07:07:39;;;;;;;14.65;3.10;;;20.90;86.10;;;;;;5011176;28;20022;-80
2022/06/12 07:10:07;;;;;;;15.30;2.97;;;21.00;86.00;;;;;;5009800;28;20041;-78
2022/06/12 07:12:33;;;;;;;22.65;3.30;;;21.30;85.30;;;;;;5012088;28;20049;-84
2022/06/12 07:14:59;;;;;;;7.90;2.20;;;21.30;82.80;;;;;;5011261;28;20026;-79
2022/06/12 07:17:25;;;;;;;11.60;2.60;;;21.30;81.90;;;;;;5010036;28;20345;-81
2022/06/12 07:19:51;;;;;;;10.20;3.42;;;21.40;81.20;;;;;;5011171;28;20033;-82
2022/06/12 07:22:16;;;;;;;10.50;2.90;;;21.50;80.40;;;;;;5011554;28;20025;-79
2022/06/12 07:24:42;;;;;;;15.18;2.53;;;21.50;79.40;;;;;;5012033;28;20440;-83
2022/06/12 07:27:08;;;;;;;8.85;2.55;;;21.60;79.10;;;;;;5011581;28;20096;-84
2022/06/12 07:29:34;;;;;;;9.93;2.60;;;21.60;79.60;;;;;;5011471;28;20038;-81
2022/06/12 07:32:00;;;;;;;13.60;3.08;;;21.50;78.00;;;;;;5011232;28;20046;-83
2022/06/12 07:34:26;;;;;;;9.48;2.50;;;21.60;78.50;;;;;;5011081;28;20130;-82
2022/06/12 07:36:54;;;;;;;10.77;2.15;;;21.70;78.40;;;;;;5012335;28;20022;-87
2022/06/12 07:39:30;;;;;;;10.63;2.10;;;21.70;76.60;;;;;;5011098;28;20054;-94
2022/06/12 07:41:56;;;;;;;9.32;2.10;;;21.60;76.90;;;;;;5011435;28;20034;-79
2022/06/12 07:44:26;;;;;;;10.18;1.92;;;21.70;76.80;;;;;;5010709;28;20033;-89
2022/06/12 07:46:54;;;;;;;4.65;1.17;;;21.60;74.20;;;;;;5011575;28;20034;-86
2022/06/12 07:49:20;;;;;;;5.75;0.98;;;21.60;69.80;;;;;;5010456;28;20411;-86
2022/06/12 07:51:47;;;;;;;8.98;1.35;;;21.60;66.80;;;;;;5010736;28;20038;-83
2022/06/12 07:54:12;;;;;;;5.95;1.23;;;21.80;63.70;;;;;;5011554;28;20030;-89
2022/06/12 07:56:39;;;;;;;5.60;1.00;;;21.80;65.00;;;;;;5011198;28;20435;-81
2022/06/12 07:59:06;;;;;;;4.93;1.48;;;21.80;65.70;;;;;;5011365;28;20057;-87
2022/06/12 08:01:31;;;;;;;10.85;1.52;;;22.00;67.00;;;;;;5011079;28;20114;-89
2022/06/12 08:03:58;;;;;;;10.30;1.45;;;22.30;66.00;;;;;;5011178;28;20108;-87
2022/06/12 08:06:24;;;;;;;5.50;1.20;;;22.60;65.50;;;;;;5012180;28;20028;-87
2022/06/12 08:08:51;;;;;;;5.53;1.30;;;22.90;64.40;;;;;;5010906;28;20034;-85
2022/06/12 08:11:17;;;;;;;9.75;1.17;;;23.30;62.20;;;;;;5011229;28;20033;-86
2022/06/12 08:13:43;;;;;;;11.73;1.90;;;23.60;62.00;;;;;;5012062;28;20350;-88
2022/06/12 08:16:10;;;;;;;5.32;1.20;;;24.60;62.50;;;;;;5011955;28;20026;-86
2022/06/12 08:18:36;;;;;;;8.55;1.55;;;25.40;60.60;;;;;;5013256;28;20036;-87
2022/06/12 08:21:09;;;;;;;13.35;1.77;;;26.50;58.40;;;;;;5014069;28;20030;-87
2022/06/12 08:23:43;;;;;;;7.43;1.83;;;26.40;58.30;;;;;;5015688;28;20030;-86
2022/06/12 08:26:16;;;;;;;7.45;1.83;;;26.90;57.90;;;;;;5016229;28;20376;-86
2022/06/12 08:28:49;;;;;;;6.80;1.30;;;27.40;58.70;;;;;;5015504;28;20033;-83
2022/06/12 08:31:23;;;;;;;8.23;2.00;;;27.90;56.00;;;;;;5014521;28;20049;-83
2022/06/12 08:33:52;;;;;;;11.02;1.92;;;28.20;56.30;;;;;;5015266;28;20368;-83
2022/06/12 08:36:20;;;;;;;7.70;2.00;;;28.80;55.10;;;;;;5014868;28;20022;-84
2022/06/12 08:38:47;;;;;;;9.07;1.80;;;29.00;55.30;;;;;;5015369;28;20034;-82
2022/06/12 08:41:37;;;;;;;11.43;1.85;;;29.00;54.40;;;;;;5014918;28;20456;-84
2022/06/12 08:44:21;;;;;;;8.35;1.90;;;29.10;53.60;;;;;;5014741;28;20136;-82
2022/06/12 08:47:13;;;;;;;12.50;1.80;;;29.80;53.00;;;;;;5014831;28;20040;-83
2022/06/12 08:50:00;;;;;;;12.77;2.10;;;29.80;52.20;;;;;;5015956;28;20113;-80
2022/06/12 08:52:37;;;;;;;8.83;1.67;;;30.50;51.80;;;;;;5014922;28;20119;-84
2022/06/12 08:55:22;;;;;;;7.32;1.63;;;29.50;51.00;;;;;;5014368;28;20338;-83
2022/06/12 08:58:02;;;;;;;8.20;1.67;;;29.60;51.70;;;;;;5014616;28;20026;-84
2022/06/12 09:00:32;;;;;;;13.57;2.30;;;30.20;52.20;;;;;;5014364;28;20030;-83
2022/06/12 09:02:58;;;;;;;9.70;1.90;;;29.70;51.20;;;;;;5013030;28;20341;-86
2022/06/12 09:05:40;;;;;;;8.93;2.22;;;29.90;51.00;;;;;;5012525;28;20030;-74
2022/06/12 09:08:13;;;;;;;10.63;2.25;;;29.20;51.70;;;;;;5013316;28;20356;-78
2022/06/12 09:10:46;;;;;;;7.47;1.90;;;29.20;50.90;;;;;;5013291;28;20333;-77
2022/06/12 09:13:28;;;;;;;8.43;1.83;;;29.20;50.90;;;;;;5012872;28;20049;-77
2022/06/12 09:15:54;;;;;;;9.27;1.63;;;29.40;50.80;;;;;;5013079;28;20478;-75
2022/06/12 09:18:43;;;;;;;6.78;1.63;;;29.70;49.70;;;;;;5013621;28;20025;-75
2022/06/12 09:21:30;;;;;;;8.35;2.05;;;28.90;50.70;;;;;;5012136;28;20033;-84
2022/06/12 09:23:56;;;;;;;;;;;28.40;51.30;;;;;;5014558;28;20030;-82
2022/06/12 09:26:43;;;;;;;9.32;2.05;;;27.80;52.10;;;;;;5013437;28;19919;-78
2022/06/12 09:29:40;;;;;;;10.68;2.15;;;27.40;52.20;;;;;;5013159;28;20464;-76
2022/06/12 09:32:33;;;;;;;7.15;1.70;;;27.20;52.50;;;;;;5013519;28;20129;-75
2022/06/12 09:35:17;;;;;;;11.85;2.85;;;27.20;52.90;;;;;;5014411;28;20044;-78
2022/06/12 09:38:21;;;;;;;7.35;2.10;;;27.50;52.90;;;;;;5012628;28;20030;-75
2022/06/12 09:41:00;;;;;;;8.93;1.55;;;26.90;52.10;;;;;;5016316;28;20053;-77
2022/06/12 09:44:00;;;;;;;9.35;1.52;;;26.60;53.20;;;;;;5019235;28;20052;-79
2022/06/12 09:46:44;;;;;;;7.70;1.60;;;26.70;53.30;;;;;;5020811;28;20141;-79
2022/06/12 09:49:34;;;;;;;6.53;2.03;;;26.90;53.10;;;;;;5020619;28;20086;-82
2022/06/12 09:52:13;;;;;;;9.45;2.25;;;26.70;53.10;;;;;;5019723;28;20594;-81
2022/06/12 09:54:42;;;;;;;7.50;1.65;;;26.40;54.10;;;;;;5021198;28;20156;-78
2022/06/12 09:57:29;;;;;;;9.10;2.35;;;26.60;54.00;;;;;;5021421;28;20030;-80
2022/06/12 10:00:26;;;;;;;10.60;2.47;;;26.80;53.60;;;;;;5020156;28;20184;-83
2022/06/12 10:03:16;;;;;;;5.05;1.67;;;26.60;53.90;;;;;;5016557;28;20338;-81
2022/06/12 10:05:51;;;;;;;6.85;1.58;;;27.00;54.00;;;;;;5014524;28;20026;-79
2022/06/12 10:08:26;;;;;;;6.50;1.40;;;26.70;54.00;;;;;;5014113;28;20478;-78
2022/06/12 10:10:59;;;;;;;8.90;1.85;;;26.70;53.50;;;;;;5013763;28;20034;-77
2022/06/12 10:13:49;;;;;;;9.65;2.08;;;26.70;52.80;;;;;;5012202;28;20105;-74
2022/06/12 10:16:24;;;;;;;6.72;1.60;;;26.70;54.90;;;;;;5013037;28;20022;-80
2022/06/12 10:18:59;;;;;;;7.72;1.73;;;27.00;53.70;;;;;;5013059;28;20041;-79
2022/06/12 10:21:27;;;;;;;9.50;1.63;;;26.50;54.30;;;;;;5012595;28;20042;-78
2022/06/12 10:23:53;;;;;;;8.00;1.65;;;26.60;54.60;;;;;;5012132;28;20030;-77
2022/06/12 10:26:22;;;;;;;9.45;1.70;;;26.70;54.60;;;;;;5011035;28;20042;-76
2022/06/12 10:28:59;;;;;;;10.20;1.67;;;27.00;54.00;;;;;;5012002;28;20026;-77
2022/06/12 10:31:25;;;;;;;9.32;2.10;;;26.80;53.20;;;;;;5011799;28;20058;-76
2022/06/12 10:33:52;;;;;;;5.13;1.80;;;26.50;54.10;;;;;;5012720;28;20072;-77
2022/06/12 10:36:31;;;;;;;10.85;1.75;;;26.30;52.80;;;;;;5010868;28;20317;-75
2022/06/12 10:39:13;;;;;;;9.30;1.83;;;26.10;53.10;;;;;;5010917;28;20068;-76
2022/06/12 10:41:51;;;;;;;8.88;2.00;;;26.00;53.50;;;;;;5010985;28;20041;-75
2022/06/12 10:44:39;;;;;;;4.50;1.20;;;26.20;54.10;;;;;;5009960;28;20050;-76
2022/06/12 10:47:21;;;;;;;5.55;1.40;;;26.00;54.00;;;;;;5011319;28;20496;-74
2022/06/12 10:50:00;;;;;;;6.45;2.08;;;25.80;51.20;;;;;;5011483;28;20426;-76
2022/06/12 10:52:25;;;;;;;9.43;2.03;;;25.40;51.20;;;;;;5010279;28;20042;-75
2022/06/12 10:54:52;;;;;;;5.07;1.42;;;25.40;52.30;;;;;;5011858;28;20169;-75
2022/06/12 10:57:53;;;;;;;5.70;1.52;;;25.60;52.90;;;;;;5011488;28;20436;-76
2022/06/12 11:00:24;;;;;;;6.60;2.03;;;25.70;52.70;;;;;;5011360;28;20510;-76
2022/06/12 11:03:06;;;;;;;6.90;1.70;;;26.00;53.10;;;;;;5010386;28;20379;-77
2022/06/12 11:05:50;;;;;;;5.38;1.08;;;25.80;51.80;;;;;;5009916;28;20080;-76
2022/06/12 11:08:45;;;;;;;4.97;2.00;;;26.00;51.30;;;;;;5010191;28;20103;-74
2022/06/12 11:11:38;;;;;;;7.18;1.70;;;25.50;52.90;;;;;;5002723;28;20128;-78
2022/06/12 11:14:26;;;;;;;6.32;1.40;;;25.60;53.20;;;;;;5011580;28;20165;-78
2022/06/12 11:17:36;;;;;;;8.07;1.85;;;25.50;53.70;;;;;;5010011;28;20033;-77
2022/06/12 11:20:24;;;;;;;5.90;1.58;;;25.60;53.40;;;;;;5010230;28;20041;-75
2022/06/12 11:23:10;;;;;;;6.50;1.63;;;25.60;52.80;;;;;;5011277;28;20317;-79
2022/06/12 11:25:54;;;;;;;10.75;2.45;;;25.60;53.10;;;;;;5009708;28;20513;-77
2022/06/12 11:28:26;;;;;;;5.15;1.73;;;25.60;52.80;;;;;;5010733;28;20129;-76
2022/06/12 11:31:18;;;;;;;10.40;2.00;;;25.40;51.90;;;;;;5011150;28;20085;-74
2022/06/12 11:33:54;;;;;;;11.57;1.77;;;25.30;53.60;;;;;;5009913;28;20046;-76
2022/06/12 11:37:07;;;;;;;8.07;1.42;;;25.50;52.80;;;;;;5010365;28;20345;-78
2022/06/12 11:39:58;;;;;;;2.90;0.90;;;25.60;53.30;;;;;;5028424;28;20122;-75
2022/06/12 11:42:30;;;;;;;7.10;0.98;;;25.70;53.50;;;;;;5008354;28;20026;-75
2022/06/12 11:45:15;;;;;;;4.38;1.35;;;25.60;53.20;;;;;;5012500;28;20041;-77
2022/06/12 11:48:21;;;;;;;7.65;1.80;;;25.70;53.30;;;;;;5010438;28;20030;-81
2022/06/12 11:50:56;;;;;;;5.65;1.42;;;25.50;51.90;;;;;;5011690;28;20489;-76
2022/06/12 11:53:47;;;;;;;9.70;1.52;;;25.40;52.20;;;;;;5011066;28;20038;-76
2022/06/12 11:56:51;;;;;;;5.43;1.48;;;25.60;52.30;;;;;;5021587;28;20037;-73
2022/06/12 11:59:41;;;;;;;7.18;1.67;;;25.30;53.30;;;;;;5014450;28;20034;-73
2022/06/12 12:02:33;;;;;;;7.13;2.20;;;25.10;53.30;;;;;;5014538;28;20447;-73
2022/06/12 12:05:29;;;;;;;6.85;1.40;;;25.10;53.00;;;;;;5020118;28;20048;-72
2022/06/12 12:08:22;;;;;;;7.57;1.25;;;25.00;53.50;;;;;;5015739;28;20451;-71
2022/06/12 12:11:05;;;;;;;7.00;1.50;;;25.30;53.10;;;;;;5014175;28;20088;-71
2022/06/12 12:13:41;;;;;;;6.10;1.77;;;25.20;53.40;;;;;;5013162;28;20100;-72
2022/06/12 12:16:21;;;;;;;6.80;1.23;;;25.50;53.40;;;;;;5014266;28;20026;-73
2022/06/12 12:18:53;;;;;;;5.15;1.33;;;25.20;52.30;;;;;;5013432;28;20034;-77
2022/06/12 12:21:35;;;;;;;7.47;1.40;;;25.20;53.10;;;;;;5014281;28;20085;-75
2022/06/12 12:24:01;;;;;;;4.70;1.00;;;25.50;52.20;;;;;;5013405;28;20045;-78
2022/06/12 12:26:37;;;;;;;8.00;1.77;;;25.60;52.00;;;;;;5014488;28;20058;-75
2022/06/12 12:29:09;;;;;;;8.35;1.48;;;25.40;52.30;;;;;;5013390;28;20523;-73
2022/06/12 12:31:36;;;;;;;8.00;1.58;;;25.40;52.70;;;;;;5013790;28;20050;-73
2022/06/12 12:34:06;;;;;;;5.80;0.93;;;25.30;52.80;;;;;;5014051;28;20077;-73
2022/06/12 12:42:30;;;;;;;4.38;1.02;;;25.00;51.30;;;;;;5014254;28;20353;-77
2022/06/12 12:45:13;;;;;;;5.70;1.20;;;25.10;50.40;;;;;;5012903;28;20468;-71
2022/06/12 12:47:39;;;;;;;4.25;1.13;;;24.90;51.00;;;;;;5013841;28;20372;-79
2022/06/12 12:50:14;;;;;;;7.70;1.30;;;24.90;51.10;;;;;;5013765;28;20026;-79
2022/06/12 12:52:42;;;;;;;4.88;1.00;;;24.80;51.80;;;;;;5013823;28;20106;-76
2022/06/12 12:55:29;;;;;;;2.80;0.80;;;25.00;51.70;;;;;;5013578;28;20022;-77
2022/06/12 12:57:58;;;;;;;3.70;1.05;;;25.10;52.10;;;;;;5013455;28;20030;-75
2022/06/12 13:00:33;;;;;;;3.22;0.75;;;25.10;52.20;;;;;;5013847;28;20014;-77
2022/06/12 13:03:01;;;;;;;3.90;1.30;;;25.00;50.60;;;;;;5013809;28;20372;-76
2022/06/12 13:05:34;;;;;;;2.70;0.95;;;24.90;50.00;;;;;;5013627;28;20037;-78
2022/06/12 13:08:08;;;;;;;5.22;1.20;;;24.80;50.20;;;;;;5012216;28;20026;-76
2022/06/12 13:11:09;;;;;;;5.28;1.08;;;24.70;50.40;;;;;;5013212;28;20018;-77
2022/06/12 13:13:50;;;;;;;4.72;0.90;;;24.90;49.80;;;;;;5012225;28;20030;-79
2022/06/12 13:16:47;;;;;;;2.00;0.90;;;24.80;50.50;;;;;;5013103;28;20045;-77
2022/06/12 13:19:19;;;;;;;5.05;1.70;;;25.10;51.40;;;;;;5012179;28;21834;-78
2022/06/12 13:21:56;;;;;;;3.50;0.93;;;25.00;51.50;;;;;;5012568;28;20061;-77
2022/06/12 13:24:45;;;;;;;3.85;0.98;;;25.00;51.50;;;;;;5013390;28;20370;-78
2022/06/12 13:27:25;;;;;;;3.17;0.90;;;24.90;51.30;;;;;;5013168;28;20090;-78
2022/06/12 13:29:53;;;;;;;5.32;0.88;;;24.90;51.00;;;;;;5013001;28;20034;-77
2022/06/12 13:32:31;;;;;;;6.72;1.38;;;24.90;50.80;;;;;;5012663;28;20073;-77
2022/06/12 13:35:07;;;;;;;5.43;1.58;;;25.00;51.30;;;;;;5011916;28;20022;-77
2022/06/12 13:37:36;;;;;;;3.55;1.33;;;25.00;48.80;;;;;;5011929;28;20068;-79
2022/06/12 13:40:21;;;;;;;4.80;1.25;;;25.00;50.10;;;;;;5012497;28;20025;-77